Time;durP1;ratioP1;P1;durP2;ratioP2;P2;SDS_P1;SDS_P2;PMS_P1;PMS_P2;Temp;Humidity;BMP_temperature;BMP_pressure;BME280_temperature;BME280_humidity;BME280_pressure;Samples;Min_cycle;Max_cycle;Signal;HPM_P1;HPM_P2
2024/03/16 00:00:06;;;;;;;;;;;;;;;16.14;65.28;100941.56;5079701;28;19916;-77
2024/03/16 00:02:57;;;;;;;;;;;;;;;16.14;65.30;100940.75;5098221;28;19919;-78
2024/03/16 00:05:48;;;;;;;;;;;;;;;16.03;65.65;100937.69;5081172;28;19916;-78
2024/03/16 00:08:38;;;;;;;;;;;;;;;16.05;65.89;100940.09;5084766;28;19916;-78
2024/03/16 00:11:35;;;;;;;;;;;;;;;15.88;66.47;100934.84;5096908;28;19920;-77
2024/03/16 00:14:27;;;;;;;;;;;;;;;15.88;66.85;100935.66;5094434;28;19920;-78
2024/03/16 00:17:16;;;;;;;;;;;;;;;15.96;66.20;100945.69;5083526;28;19924;-79
2024/03/16 00:20:10;;;;;;;;;;;;;;;15.93;65.98;100943.66;5081213;28;19916;-77
2024/03/16 00:23:08;;;;;;;;;;;;;;;15.91;65.99;100943.19;5079154;28;19920;-77
2024/03/16 00:25:57;;;;;;;;;;;;;;;16.01;65.92;100941.91;5096951;28;19920;-78
2024/03/16 00:28:49;;;;;;;;;;;;;;;15.96;65.56;100934.72;5074676;28;19916;-78
2024/03/16 00:31:41;;;;;;;;;;;;;;;16.00;65.28;100932.88;5083833;28;19916;-77
2024/03/16 00:34:30;;;;;;;;;;;;;;;15.97;65.08;100930.84;5096471;28;20298;-78
2024/03/16 00:37:22;;;;;;;;;;;;;;;16.04;65.40;100942.03;5094353;28;19928;-79
2024/03/16 00:40:15;;;;;;;;;;;;;;;16.09;65.24;100936.31;5097864;28;19920;-78
2024/03/16 00:43:07;;;;;;;;;;;;;;;16.10;65.27;100942.59;5095893;28;19916;-78
2024/03/16 00:46:01;;;;;;;;;;;;;;;16.16;65.51;100950.22;5099484;28;19917;-78
2024/03/16 00:48:50;;;;;;;;;;;;;;;16.14;65.18;100938.81;5076693;28;19923;-78
2024/03/16 00:51:42;;;;;;;;;;;;;;;15.97;66.25;100941.00;5094931;28;20381;-78
2024/03/16 00:54:31;;;;;;;;;;;;;;;15.93;66.24;100927.19;5096003;28;19916;-78
2024/03/16 00:57:23;;;;;;;;;;;;;;;15.81;66.41;100927.19;5095121;28;20381;-78
2024/03/16 01:00:20;;;;;;;;;;;;;;;15.83;65.86;100928.47;5093398;28;20297;-78
2024/03/16 01:03:12;;;;;;;;;;;;;;;15.89;66.42;100933.72;5092842;28;19920;-77
2024/03/16 01:06:05;;;;;;;;;;;;;;;15.90;66.34;100927.09;5080248;28;19916;-78
2024/03/16 01:08:57;;;;;;;;;;;;;;;16.11;66.14;100928.50;5092440;28;19916;-79
2024/03/16 01:11:49;;;;;;;;;;;;;;;15.98;66.01;100928.91;5096772;28;20385;-77
2024/03/16 01:14:38;;;;;;;;;;;;;;;15.95;65.55;100929.59;5079240;28;19916;-78
2024/03/16 01:17:30;;;;;;;;;;;;;;;15.98;65.64;100929.69;5097928;28;19920;-78
2024/03/16 01:20:22;;;;;;;;;;;;;;;16.12;65.63;100930.13;5080758;28;19920;-78
2024/03/16 01:23:17;;;;;;;;;;;;;;;16.20;65.27;100926.41;5093461;28;20389;-77
2024/03/16 01:26:09;;;;;;;;;;;;;;;16.17;65.42;100927.13;5096799;28;19920;-78
2024/03/16 01:29:01;;;;;;;;;;;;;;;16.20;65.39;100920.94;5094538;28;19920;-77
2024/03/16 01:31:54;;;;;;;;;;;;;;;16.15;65.48;100923.91;5098109;28;19920;-79
2024/03/16 01:34:45;;;;;;;;;;;;;;;16.07;65.25;100916.63;5094634;28;20381;-79
2024/03/16 01:37:35;;;;;;;;;;;;;;;16.04;65.59;100920.09;5093588;28;19920;-78
2024/03/16 01:40:27;;;;;;;;;;;;;;;16.12;65.76;100913.66;5097291;28;19916;-78
2024/03/16 01:43:19;;;;;;;;;;;;;;;16.14;65.47;100916.88;5080475;28;19920;-78
2024/03/16 01:46:12;;;;;;;;;;;;;;;16.15;65.97;100915.69;5083877;28;20326;-79
2024/03/16 01:49:01;;;;;;;;;;;;;;;16.21;66.04;100924.47;5098441;28;19916;-78
2024/03/16 01:51:53;;;;;;;;;;;;;;;16.13;65.90;100919.94;5079018;28;19920;-78
2024/03/16 01:54:45;;;;;;;;;;;;;;;16.03;65.97;100920.44;5092196;28;19920;-78
2024/03/16 01:57:37;;;;;;;;;;;;;;;15.92;66.23;100914.63;5080666;28;19924;-77
2024/03/16 02:00:29;;;;;;;;;;;;;;;15.86;66.76;100912.44;5093412;28;19916;-77
2024/03/16 02:03:21;;;;;;;;;;;;;;;15.78;67.20;100925.16;5096799;28;20297;-77
2024/03/16 02:06:11;;;;;;;;;;;;;;;15.82;67.24;100926.88;5094810;28;19920;-77
2024/03/16 02:09:03;;;;;;;;;;;;;;;15.66;67.22;100922.41;5093577;28;19916;-77
2024/03/16 02:11:55;;;;;;;;;;;;;;;15.58;67.62;100917.88;5096581;28;20396;-79
2024/03/16 02:14:47;;;;;;;;;;;;;;;15.73;67.42;100917.97;5093397;28;19916;-78
2024/03/16 02:17:37;;;;;;;;;;;;;;;15.75;67.31;100910.19;5090760;28;20397;-78
2024/03/16 02:20:29;;;;;;;;;;;;;;;15.69;67.73;100905.31;5094190;28;20316;-78
2024/03/16 02:23:21;;;;;;;;;;;;;;;15.78;67.34;100911.44;5093075;28;19920;-78
2024/03/16 02:26:13;;;;;;;;;;;;;;;15.79;67.57;100910.31;5097024;28;19920;-77
2024/03/16 02:29:05;;;;;;;;;;;;;;;15.85;67.17;100914.41;5079079;28;20032;-78
2024/03/16 02:31:55;;;;;;;;;;;;;;;15.89;67.29;100912.59;5077704;28;19916;-78
2024/03/16 02:34:46;;;;;;;;;;;;;;;15.96;67.29;100912.78;5093717;28;20396;-78
2024/03/16 02:37:38;;;;;;;;;;;;;;;15.91;66.94;100914.97;5093040;28;19924;-77
2024/03/16 02:40:30;;;;;;;;;;;;;;;15.80;67.20;100904.47;5076527;28;19916;-78
2024/03/16 02:43:18;;;;;;;;;;;;;;;15.69;67.42;100910.78;5095100;28;19924;-78
2024/03/16 02:46:10;;;;;;;;;;;;;;;15.60;68.13;100907.34;5093399;28;19915;-79
2024/03/16 02:49:02;;;;;;;;;;;;;;;15.61;68.02;100906.22;5096192;28;19920;-78
2024/03/16 02:51:54;;;;;;;;;;;;;;;15.65;68.00;100899.69;5092211;28;19920;-78
2024/03/16 02:54:43;;;;;;;;;;;;;;;15.76;67.83;100902.75;5091454;28;20385;-79
2024/03/16 02:57:30;;;;;;;;;;;;;;;15.79;67.54;100904.81;5096337;28;20397;-77
2024/03/16 03:00:22;;;;;;;;;;;;;;;15.80;67.32;100898.19;5079002;28;20389;-77
2024/03/16 03:03:15;;;;;;;;;;;;;;;15.82;67.28;100898.63;5091832;28;19916;-79
2024/03/16 03:06:04;;;;;;;;;;;;;;;15.74;67.30;100896.84;5094591;28;19920;-78
2024/03/16 03:08:56;;;;;;;;;;;;;;;15.72;67.50;100905.41;5078416;28;19919;-78
2024/03/16 03:11:51;;;;;;;;;;;;;;;15.69;67.65;100899.81;5090199;28;19920;-78
2024/03/16 03:14:43;;;;;;;;;;;;;;;15.60;67.88;100897.19;5078936;28;19924;-78
2024/03/16 03:17:35;;;;;;;;;;;;;;;15.60;67.68;100891.69;5077544;28;19920;-78
2024/03/16 03:20:27;;;;;;;;;;;;;;;15.56;68.29;100893.53;5083034;28;19916;-78
2024/03/16 03:23:17;;;;;;;;;;;;;;;15.62;68.59;100888.63;5082931;28;19916;-77
2024/03/16 03:26:12;;;;;;;;;;;;;;;15.61;68.59;100890.56;5095562;28;19920;-78
2024/03/16 03:29:04;;;;;;;;;;;;;;;15.62;68.38;100894.09;5099050;28;19920;-78
2024/03/16 03:31:56;;;;;;;;;;;;;;;15.62;68.14;100897.66;5096846;28;19916;-78
2024/03/16 03:34:49;;;;;;;;;;;;;;;15.73;67.82;100901.53;5096654;28;20305;-78
2024/03/16 03:37:38;;;;;;;;;;;;;;;15.59;68.42;100903.84;5097372;28;19921;-77
2024/03/16 03:40:30;;;;;;;;;;;;;;;15.55;68.52;100902.91;5096075;28;19916;-77
2024/03/16 03:43:22;;;;;;;;;;;;;;;15.59;68.44;100911.25;5099606;28;20297;-78
2024/03/16 03:46:28;;;;;;;;;;;;;;;15.66;68.68;100909.53;5082538;28;20308;-77
2024/03/16 03:49:29;;;;;;;;;;;;;;;15.67;68.47;100916.59;5079195;28;19920;-77
2024/03/16 03:52:21;;;;;;;;;;;;;;;15.69;68.20;100916.28;5094918;28;20373;-77
2024/03/16 03:55:13;;;;;;;;;;;;;;;15.64;68.07;100913.75;5094278;28;19920;-77
2024/03/16 03:58:03;;;;;;;;;;;;;;;15.53;68.53;100923.59;5098114;28;19924;-78
2024/03/16 04:00:54;;;;;;;;;;;;;;;15.43;68.81;100929.50;5096898;28;19924;-78
2024/03/16 04:03:44;;;;;;;;;;;;;;;15.43;69.14;100932.22;5079825;28;19916;-77
2024/03/16 04:06:36;;;;;;;;;;;;;;;15.34;69.27;100921.38;5098285;28;19935;-77
2024/03/16 04:09:25;;;;;;;;;;;;;;;15.30;69.63;100932.22;5095711;28;19917;-77
2024/03/16 04:12:19;;;;;;;;;;;;;;;15.37;69.77;100937.13;5085508;28;19924;-78
2024/03/16 04:15:12;;;;;;;;;;;;;;;15.44;69.43;100934.59;5095128;28;19917;-78
2024/03/16 04:18:04;;;;;;;;;;;;;;;15.39;69.39;100932.91;5095290;28;19920;-78
2024/03/16 04:20:56;;;;;;;;;;;;;;;15.43;69.42;100940.47;5097996;28;19920;-78
2024/03/16 04:23:43;;;;;;;;;;;;;;;15.50;69.09;100933.25;5096725;28;19917;-77
2024/03/16 04:26:35;;;;;;;;;;;;;;;15.53;69.13;100942.78;5079503;28;19920;-78
2024/03/16 04:29:25;;;;;;;;;;;;;;;15.69;68.57;100940.94;5091077;28;19916;-78
2024/03/16 04:32:17;;;;;;;;;;;;;;;15.71;68.37;100935.91;5095801;28;19916;-79
2024/03/16 04:35:09;;;;;;;;;;;;;;;15.66;68.46;100942.41;5078795;28;19916;-78
2024/03/16 04:38:01;;;;;;;;;;;;;;;15.68;68.33;100939.34;5082350;28;19924;-78
2024/03/16 04:40:53;;;;;;;;;;;;;;;15.59;68.80;100939.47;5079858;28;19920;-77
2024/03/16 04:43:46;;;;;;;;;;;;;;;15.57;69.17;100943.69;5083700;28;19920;-78
2024/03/16 04:46:38;;;;;;;;;;;;;;;15.54;69.26;100938.91;5081716;28;20331;-78
2024/03/16 04:49:30;;;;;;;;;;;;;;;15.54;69.01;100941.63;5078908;28;19916;-78
2024/03/16 04:52:22;;;;;;;;;;;;;;;15.49;68.92;100939.09;5089600;28;19928;-77
2024/03/16 04:55:14;;;;;;;;;;;;;;;15.44;69.14;100933.84;5079242;28;19916;-78
2024/03/16 04:58:06;;;;;;;;;;;;;;;15.34;69.40;100944.09;5093221;28;19924;-78
2024/03/16 05:01:00;;;;;;;;;;;;;;;15.24;69.71;100939.06;5096421;28;20393;-78
2024/03/16 05:03:52;;;;;;;;;;;;;;;15.32;69.56;100948.31;5093543;28;20317;-79
2024/03/16 05:06:44;;;;;;;;;;;;;;;15.39;69.38;100952.09;5098133;28;19920;-78
2024/03/16 05:09:36;;;;;;;;;;;;;;;15.34;69.58;100954.25;5112479;28;19916;-77
2024/03/16 05:12:28;;;;;;;;;;;;;;;15.37;69.54;100959.88;5093439;28;19915;-78
2024/03/16 05:15:20;;;;;;;;;;;;;;;15.26;69.55;100953.22;5092535;28;19917;-78
2024/03/16 05:18:12;;;;;;;;;;;;;;;15.20;70.07;100960.06;5094476;28;19924;-78
2024/03/16 05:21:04;;;;;;;;;;;;;;;15.10;70.44;100952.28;5092515;28;19920;-77
2024/03/16 05:23:56;;;;;;;;;;;;;;;15.12;70.57;100951.94;5096568;28;19916;-77
2024/03/16 05:26:48;;;;;;;;;;;;;;;15.30;70.21;100951.41;5107180;28;19920;-78
2024/03/16 05:29:40;;;;;;;;;;;;;;;15.32;70.15;100951.06;5097396;28;19995;-78
2024/03/16 05:32:32;;;;;;;;;;;;;;;15.46;69.46;100950.72;5094843;28;19916;-77
2024/03/16 05:35:28;;;;;;;;;;;;;;;15.58;68.93;100953.50;5092081;28;20385;-78
2024/03/16 05:38:17;;;;;;;;;;;;;;;15.62;69.03;100952.47;5096924;28;19920;-78
2024/03/16 05:41:12;;;;;;;;;;;;;;;15.56;68.62;100958.53;5094224;28;19916;-78
2024/03/16 05:44:04;;;;;;;;;;;;;;;15.65;68.18;100960.00;5090611;28;19916;-78
2024/03/16 05:46:53;;;;;;;;;;;;;;;15.46;68.58;100967.16;5095463;28;19916;-78
2024/03/16 05:49:45;;;;;;;;;;;;;;;15.35;69.29;100967.63;5106410;28;19916;-78
2024/03/16 05:52:37;;;;;;;;;;;;;;;15.48;69.52;100976.66;5092827;28;19916;-77
2024/03/16 05:55:29;;;;;;;;;;;;;;;15.56;69.15;100980.44;5092494;28;20385;-78
2024/03/16 05:58:21;;;;;;;;;;;;;;;15.64;69.13;100994.06;5105825;28;19928;-76
2024/03/16 06:01:13;;;;;;;;;;;;;;;15.34;69.62;100989.88;5096169;28;19916;-77
2024/03/16 06:04:05;;;;;;;;;;;;;;;15.42;69.76;100994.47;5093740;28;20393;-78
2024/03/16 06:06:55;;;;;;;;;;;;;;;15.44;69.75;101005.09;5089284;28;20289;-77
2024/03/16 06:09:47;;;;;;;;;;;;;;;15.49;69.93;101000.16;5098884;28;19915;-78
2024/03/16 06:12:37;;;;;;;;;;;;;;;15.53;69.76;101005.81;5093112;28;19920;-78
2024/03/16 06:15:26;;;;;;;;;;;;;;;15.64;69.38;101017.94;5092324;28;19920;-78
2024/03/16 06:18:18;;;;;;;;;;;;;;;15.48;69.50;101006.81;5079598;28;20381;-78
2024/03/16 06:21:10;;;;;;;;;;;;;;;15.36;70.37;101012.25;5078197;28;19916;-78
2024/03/16 06:24:02;;;;;;;;;;;;;;;15.36;70.29;101017.75;5083799;28;19916;-80
2024/03/16 06:27:00;;;;;;;;;;;;;;;15.24;71.22;101021.25;5079907;28;19916;-78
2024/03/16 06:29:55;;;;;;;;;;;;;;;15.25;71.20;101017.38;5077180;28;20331;-78
2024/03/16 06:33:05;;;;;;;;;;;;;;;15.22;71.20;101026.28;5094880;28;19916;-78
2024/03/16 06:35:54;;;;;;;;;;;;;;;15.26;70.96;101023.66;5092002;28;19915;-77
2024/03/16 06:38:43;;;;;;;;;;;;;;;15.37;70.57;101027.56;5080523;28;19920;-78
2024/03/16 06:41:35;;;;;;;;;;;;;;;15.40;70.10;101035.91;5078915;28;19916;-77
2024/03/16 06:44:27;;;;;;;;;;;;;;;15.40;71.13;101046.06;5079878;28;19916;-77
2024/03/16 06:47:16;;;;;;;;;;;;;;;15.26;71.80;101046.38;5094789;28;20296;-77
2024/03/16 06:50:10;;;;;;;;;;;;;;;15.23;72.30;101046.25;5092314;28;19916;-77
2024/03/16 06:53:04;;;;;;;;;;;;;;;15.19;72.66;101050.78;5081522;28;19916;-78
2024/03/16 06:55:58;;;;;;;;;;;;;;;15.21;73.26;101049.34;5098332;28;20462;-78
2024/03/16 06:58:50;;;;;;;;;;;;;;;15.41;73.00;101053.94;5095733;28;19924;-78
2024/03/16 07:01:39;;;;;;;;;;;;;;;15.96;70.60;101051.88;5084570;28;19916;-78
2024/03/16 07:04:31;;;;;;;;;;;;;;;16.31;69.73;101063.16;5096959;28;19920;-79
2024/03/16 07:07:22;;;;;;;;;;;;;;;16.33;67.86;101058.13;5101211;28;19924;-79
2024/03/16 07:10:14;;;;;;;;;;;;;;;16.23;68.69;101068.44;5099571;28;19916;-78
2024/03/16 07:13:06;;;;;;;;;;;;;;;16.36;67.01;101066.47;5082682;28;19916;-79
2024/03/16 07:15:59;;;;;;;;;;;;;;;16.60;65.47;101071.16;5100058;28;19916;-80
2024/03/16 07:18:51;;;;;;;;;;;;;;;16.83;65.21;101085.16;5082777;28;19924;-79
2024/03/16 07:21:43;;;;;;;;;;;;;;;17.26;63.89;101087.19;5095550;28;19916;-79
2024/03/16 07:24:35;;;;;;;;;;;;;;;16.65;63.33;101079.97;5098254;28;19916;-79
2024/03/16 07:27:27;;;;;;;;;;;;;;;17.19;63.63;101086.97;5081484;28;19920;-79
2024/03/16 07:30:18;;;;;;;;;;;;;;;17.13;61.55;101088.38;5092833;28;19920;-79
2024/03/16 07:33:10;;;;;;;;;;;;;;;17.30;61.77;101093.56;5112010;28;20639;-81
2024/03/16 07:36:03;;;;;;;;;;;;;;;17.68;60.39;101082.03;5101883;28;19916;-79
2024/03/16 07:38:56;;;;;;;;;;;;;;;17.94;59.53;101091.34;5121909;28;19924;-79
2024/03/16 07:41:47;;;;;;;;;;;;;;;17.37;60.04;101089.03;5101434;28;19916;-80
2024/03/16 07:44:40;;;;;;;;;;;;;;;17.85;58.61;101090.75;5100541;28;19931;-81
2024/03/16 07:47:32;;;;;;;;;;;;;;;17.91;57.51;101083.81;5095635;28;19931;-79
2024/03/16 07:50:24;;;;;;;;;;;;;;;18.06;57.21;101086.91;5092263;28;19938;-81
2024/03/16 07:53:16;;;;;;;;;;;;;;;17.90;57.34;101093.22;5085577;28;19928;-81
2024/03/16 07:56:09;;;;;;;;;;;;;;;17.72;58.28;101089.25;5097034;28;19916;-81
2024/03/16 07:58:58;;;;;;;;;;;;;;;17.95;57.73;101089.41;5085175;28;20321;-79
2024/03/16 08:01:48;;;;;;;;;;;;;;;17.99;57.46;101092.22;5065687;28;19916;-80
2024/03/16 08:04:39;;;;;;;;;;;;;;;17.93;57.59;101094.44;5062177;28;20373;-81
2024/03/16 08:07:31;;;;;;;;;;;;;;;18.08;57.43;101095.63;5075391;28;20453;-80
2024/03/16 08:10:23;;;;;;;;;;;;;;;18.10;57.52;101094.09;5078768;28;19936;-83
2024/03/16 08:13:15;;;;;;;;;;;;;;;18.93;55.03;101098.38;5063219;28;19916;-82
2024/03/16 08:16:07;;;;;;;;;;;;;;;18.78;56.64;101099.22;5065340;28;19920;-82
2024/03/16 08:18:59;;;;;;;;;;;;;;;18.69;56.56;101106.91;5063339;28;19925;-82
2024/03/16 08:21:50;;;;;;;;;;;;;;;18.63;56.04;101103.63;5062475;28;19916;-85
2024/03/16 08:24:42;;;;;;;;;;;;;;;17.88;58.78;101098.28;5076739;28;19917;-84
2024/03/16 08:27:34;;;;;;;;;;;;;;;17.73;59.66;101096.31;5077756;28;20309;-84
2024/03/16 08:30:26;;;;;;;;;;;;;;;17.76;58.71;101101.13;5066421;28;19916;-82
2024/03/16 08:33:18;;;;;;;;;;;;;;;17.97;58.34;101109.13;5099976;28;19916;-84
2024/03/16 08:36:10;;;;;;;;;;;;;;;18.90;55.80;101101.03;5086253;28;19916;-84
2024/03/16 08:39:02;;;;;;;;;;;;;;;19.46;53.40;101096.69;5087247;28;19920;-83
2024/03/16 08:41:51;;;;;;;;;;;;;;;19.67;52.14;101098.22;5097838;28;19916;-82
2024/03/16 08:44:43;;;;;;;;;;;;;;;19.95;51.74;101099.53;5083202;28;19916;-83
2024/03/16 08:47:35;;;;;;;;;;;;;;;19.36;52.90;101104.72;5105079;28;19916;-83
2024/03/16 08:50:27;;;;;;;;;;;;;;;17.55;57.36;101103.28;5096941;28;19916;-84
2024/03/16 08:53:22;;;;;;;;;;;;;;;17.33;59.02;101098.34;5076312;28;19920;-84
2024/03/16 08:56:07;;;;;;;;;;;;;;;17.12;60.05;101101.31;5091414;28;20384;-82
2024/03/16 08:58:57;;;;;;;;;;;;;;;16.88;60.07;101099.44;5085766;28;19924;-82
2024/03/16 09:01:49;;;;;;;;;;;;;;;17.30;58.96;101105.38;5098480;28;19916;-82
2024/03/16 09:04:39;;;;;;;;;;;;;;;18.68;56.04;101103.34;5085962;28;19916;-82
2024/03/16 09:07:28;;;;;;;;;;;;;;;18.84;54.12;101105.25;5099296;28;19916;-82
2024/03/16 09:10:20;;;;;;;;;;;;;;;19.58;52.42;101104.78;5087622;28;19916;-82
2024/03/16 09:13:10;;;;;;;;;;;;;;;19.99;51.58;101108.66;5085981;28;19916;-84
2024/03/16 09:15:59;;;;;;;;;;;;;;;20.15;49.52;101105.75;5100648;28;19916;-83
2024/03/16 09:18:49;;;;;;;;;;;;;;;21.94;46.14;101118.75;5105110;28;19920;-81
2024/03/16 09:21:41;;;;;;;;;;;;;;;25.31;37.76;101106.31;5085803;28;19920;-81
2024/03/16 09:24:33;;;;;;;;;;;;;;;29.71;30.61;101110.81;5098422;28;19916;-82
2024/03/16 09:27:30;;;;;;;;;;;;;;;29.44;29.42;101112.28;5089023;28;19915;-81
2024/03/16 09:30:22;;;;;;;;;;;;;;;30.80;27.87;101120.44;5093171;28;19920;-82
2024/03/16 09:33:12;;;;;;;;;;;;;;;31.26;26.26;101113.50;5110355;28;19920;-81
2024/03/16 09:36:01;;;;;;;;;;;;;;;31.58;25.57;101111.75;5086622;28;19939;-82
2024/03/16 09:38:56;;;;;;;;;;;;;;;32.98;24.08;101108.09;5083955;28;19921;-82
2024/03/16 09:41:46;;;;;;;;;;;;;;;32.64;24.63;101113.81;5095867;28;20632;-83
2024/03/16 09:44:35;;;;;;;;;;;;;;;30.34;27.28;101116.06;5102978;28;19916;-81
2024/03/16 09:47:27;;;;;;;;;;;;;;;32.10;24.96;101117.63;5093289;28;19975;-83
2024/03/16 09:50:21;;;;;;;;;;;;;;;34.39;22.84;101123.38;5109104;28;19924;-82
2024/03/16 09:53:11;;;;;;;;;;;;;;;32.24;23.75;101125.66;5109900;28;19924;-84
2024/03/16 09:56:00;;;;;;;;;;;;;;;31.66;25.32;101129.97;5081457;28;19920;-83
2024/03/16 09:58:57;;;;;;;;;;;;;;;33.74;22.34;101123.72;5085376;28;20567;-83
2024/03/16 10:01:47;;;;;;;;;;;;;;;36.31;19.80;101132.91;5096706;28;19920;-82
2024/03/16 10:04:35;;;;;;;;;;;;;;;32.25;23.55;101127.19;5094575;28;20332;-83
2024/03/16 10:07:22;;;;;;;;;;;;;;;34.22;22.41;101124.94;5099471;28;19920;-82
2024/03/16 10:10:16;;;;;;;;;;;;;;;34.73;21.63;101125.16;5097784;28;19916;-82
2024/03/16 10:13:11;;;;;;;;;;;;;;;37.21;19.58;101119.19;5085513;28;19916;-82
2024/03/16 10:16:01;;;;;;;;;;;;;;;38.75;17.88;101123.16;5099098;28;19975;-82
2024/03/16 10:18:50;;;;;;;;;;;;;;;39.19;17.25;101122.81;5081379;28;19924;-84
2024/03/16 10:21:44;;;;;;;;;;;;;;;39.12;17.33;101121.19;5086216;28;19920;-83
2024/03/16 10:24:36;;;;;;;;;;;;;;;37.56;19.02;101115.63;5098515;28;19916;-83
2024/03/16 10:27:26;;;;;;;;;;;;;;;36.65;19.38;101116.59;5080683;28;19915;-84
2024/03/16 10:30:16;;;;;;;;;;;;;;;36.89;18.75;101120.13;5099722;28;19920;-84
2024/03/16 10:33:09;;;;;;;;;;;;;;;38.97;17.20;101120.53;5093390;28;19920;-82
2024/03/16 10:35:56;;;;;;;;;;;;;;;38.79;17.21;101121.66;5098840;28;20560;-84
2024/03/16 10:38:48;;;;;;;;;;;;;;;37.76;17.68;101112.81;5131297;27;19924;-81
2024/03/16 10:41:40;;;;;;;;;;;;;;;40.00;16.22;101116.66;5123981;27;19916;-84
2024/03/16 10:44:30;;;;;;;;;;;;;;;39.16;17.02;101118.13;5086601;28;19916;-85
2024/03/16 10:47:22;;;;;;;;;;;;;;;38.00;17.43;101110.59;5085933;28;19916;-85
2024/03/16 10:50:14;;;;;;;;;;;;;;;36.52;18.58;101116.84;5091575;28;19921;-83
2024/03/16 10:53:07;;;;;;;;;;;;;;;31.54;24.33;101108.25;5080782;28;19917;-85
2024/03/16 10:56:01;;;;;;;;;;;;;;;33.65;22.29;101109.53;5081741;28;19920;-83
2024/03/16 10:58:52;;;;;;;;;;;;;;;31.71;24.52;101102.06;5097280;28;19924;-81
2024/03/16 11:01:42;;;;;;;;;;;;;;;28.00;30.32;101101.41;5095701;28;19924;-82
2024/03/16 11:04:33;;;;;;;;;;;;;;;29.55;28.32;101102.41;5083758;28;19920;-82
2024/03/16 11:07:24;;;;;;;;;;;;;;;35.61;21.08;101114.53;5094132;28;20393;-83
2024/03/16 11:10:34;;;;;;;;;;;;;;;35.81;20.30;101117.59;5082715;28;19920;-86
2024/03/16 11:13:26;;;;;;;;;;;;;;;37.82;17.91;101116.53;5085841;28;19920;-83
2024/03/16 11:16:37;;;;;;;;;;;;;;;41.64;15.30;101118.06;5097674;28;19916;-82
2024/03/16 11:19:29;;;;;;;;;;;;;;;40.88;15.70;101109.72;5088964;28;19928;-86
2024/03/16 11:22:24;;;;;;;;;;;;;;;45.39;12.17;101120.47;5079788;28;19916;-85
2024/03/16 11:25:21;;;;;;;;;;;;;;;45.41;11.71;101112.88;5079202;28;19916;-86
2024/03/16 11:28:13;;;;;;;;;;;;;;;43.63;13.68;101101.03;5088492;28;19916;-85
2024/03/16 11:31:21;;;;;;;;;;;;;;;45.24;11.76;101106.63;5084397;28;19920;-85
2024/03/16 11:34:09;;;;;;;;;;;;;;;45.63;11.26;101102.25;5089284;28;19916;-85
2024/03/16 11:37:04;;;;;;;;;;;;;;;43.78;12.78;101089.91;5093584;28;19916;-85
2024/03/16 11:39:56;;;;;;;;;;;;;;;37.61;17.46;101075.19;5089607;28;19979;-85
2024/03/16 11:42:48;;;;;;;;;;;;;;;39.31;16.74;101079.72;5103831;28;19920;-84
2024/03/16 11:45:43;;;;;;;;;;;;;;;43.14;13.14;101090.78;5081481;28;19916;-83
2024/03/16 11:48:35;;;;;;;;;;;;;;;44.11;12.36;101085.06;5081999;28;19920;-85
2024/03/16 11:51:28;;;;;;;;;;;;;;;44.39;12.61;101076.91;5096062;28;19920;-87
2024/03/16 11:54:18;;;;;;;;;;;;;;;45.49;11.34;101085.03;5086007;28;19920;-86
2024/03/16 11:57:07;;;;;;;;;;;;;;;43.28;12.54;101075.31;5102813;28;19916;-86
2024/03/16 11:59:56;;;;;;;;;;;;;;;35.73;18.92;101056.19;5084319;28;19924;-86
2024/03/16 12:02:49;;;;;;;;;;;;;;;32.68;22.71;101044.03;5115432;28;19916;-85
2024/03/16 12:05:41;;;;;;;;;;;;;;;30.88;23.82;101043.16;5095857;28;19920;-85
2024/03/16 12:08:31;;;;;;;;;;;;;;;30.03;24.69;101030.72;5102677;28;19920;-84
2024/03/16 12:11:20;;;;;;;;;;;;;;;30.02;25.55;101037.59;5082271;28;19920;-85
2024/03/16 12:14:13;;;;;;;;;;;;;;;30.30;25.15;101038.81;5084928;28;19916;-84
2024/03/16 12:17:05;;;;;;;;;;;;;;;29.76;25.75;101036.63;5091676;28;19916;-83
2024/03/16 12:19:57;;;;;;;;;;;;;;;33.55;21.09;101043.84;5087511;28;19920;-85
2024/03/16 12:22:53;;;;;;;;;;;;;;;33.21;21.50;101033.56;5092920;28;19916;-86
2024/03/16 12:25:43;;;;;;;;;;;;;;;30.29;25.40;101032.41;5120355;28;19920;-84
2024/03/16 12:28:32;;;;;;;;;;;;;;;28.99;27.12;101031.59;5098707;28;19921;-84
2024/03/16 12:31:24;;;;;;;;;;;;;;;35.39;19.68;101035.59;5119496;28;20392;-85
2024/03/16 12:34:14;;;;;;;;;;;;;;;34.50;20.20;101038.94;5081573;28;19916;-85
2024/03/16 12:37:08;;;;;;;;;;;;;;;34.48;20.76;101030.19;5079871;28;19916;-85
2024/03/16 12:40:00;;;;;;;;;;;;;;;33.67;22.06;101040.13;5093358;28;19920;-83
2024/03/16 12:42:52;;;;;;;;;;;;;;;39.08;16.42;101051.56;5107745;28;20373;-85
2024/03/16 12:45:44;;;;;;;;;;;;;;;36.21;18.13;101037.94;5085012;28;19924;-84
2024/03/16 12:48:39;;;;;;;;;;;;;;;30.01;25.15;101028.38;5099052;28;19924;-84
2024/03/16 12:51:32;;;;;;;;;;;;;;;27.60;28.99;101029.81;5082526;28;19916;-81
2024/03/16 12:54:27;;;;;;;;;;;;;;;24.61;34.33;101025.50;5098959;28;19916;-82
2024/03/16 12:57:16;;;;;;;;;;;;;;;25.32;33.46;101021.59;5095735;28;19916;-84
2024/03/16 13:00:13;;;;;;;;;;;;;;;28.38;28.29;101026.44;5083039;28;19920;-84
2024/03/16 13:03:02;;;;;;;;;;;;;;;27.94;29.56;101030.44;5082516;28;19916;-85
2024/03/16 13:05:55;;;;;;;;;;;;;;;26.38;31.69;101037.41;5093672;28;19919;-82
2024/03/16 13:08:47;;;;;;;;;;;;;;;24.79;35.02;101022.66;5090840;28;19916;-84
2024/03/16 13:11:36;;;;;;;;;;;;;;;23.41;37.50;101018.09;5096559;28;19916;-84
2024/03/16 13:14:28;;;;;;;;;;;;;;;24.38;36.05;101018.84;5096546;28;19920;-82
2024/03/16 13:17:20;;;;;;;;;;;;;;;24.47;36.26;101017.22;5075580;28;19920;-86
2024/03/16 13:20:12;;;;;;;;;;;;;;;31.28;24.00;101026.72;5082460;28;19920;-85
2024/03/16 13:23:12;;;;;;;;;;;;;;;35.92;18.71;101021.59;5074637;28;19916;-84
2024/03/16 13:26:05;;;;;;;;;;;;;;;36.76;18.08;101011.91;5102456;28;19920;-83
2024/03/16 13:29:01;;;;;;;;;;;;;;;32.09;21.63;100992.25;5081173;28;19916;-82
2024/03/16 13:31:50;;;;;;;;;;;;;;;29.76;25.03;101005.78;5090387;28;19916;-84
2024/03/16 13:34:40;;;;;;;;;;;;;;;29.48;26.97;100996.06;5094559;28;19939;-85
2024/03/16 13:37:30;;;;;;;;;;;;;;;31.51;23.39;100993.84;5103003;28;19916;-85
2024/03/16 13:40:20;;;;;;;;;;;;;;;26.33;30.99;100982.88;5102836;28;19924;-84
2024/03/16 13:43:11;;;;;;;;;;;;;;;30.16;26.13;100989.50;5085020;28;19916;-83
2024/03/16 13:46:03;;;;;;;;;;;;;;;35.07;20.61;101000.34;5087183;28;19915;-88
2024/03/16 13:49:03;;;;;;;;;;;;;;;35.06;20.37;100986.69;5082066;28;19924;-82
2024/03/16 13:51:55;;;;;;;;;;;;;;;34.61;20.93;100977.09;5094508;28;19924;-86
2024/03/16 13:54:47;;;;;;;;;;;;;;;35.03;20.30;100973.53;5091585;28;19916;-85
2024/03/16 13:57:42;;;;;;;;;;;;;;;34.92;19.19;100971.22;5099502;28;20296;-86
2024/03/16 14:00:32;;;;;;;;;;;;;;;36.26;18.37;100963.59;5075002;28;20389;-86
2024/03/16 14:03:21;;;;;;;;;;;;;;;33.31;20.93;100958.25;5107690;28;19916;-87
2024/03/16 14:06:13;;;;;;;;;;;;;;;35.15;20.09;100975.38;5091501;28;20334;-85
2024/03/16 14:09:06;;;;;;;;;;;;;;;33.67;20.61;100966.00;5108824;28;19920;-86
2024/03/16 14:11:58;;;;;;;;;;;;;;;32.70;21.75;100957.06;5082073;28;19916;-85
2024/03/16 14:14:51;;;;;;;;;;;;;;;30.82;24.59;100959.94;5089573;28;20340;-83
2024/03/16 14:17:40;;;;;;;;;;;;;;;28.24;27.78;100951.19;5073761;28;19920;-85
2024/03/16 14:20:31;;;;;;;;;;;;;;;26.89;29.91;100954.69;5099164;28;19924;-84
2024/03/16 14:23:23;;;;;;;;;;;;;;;26.05;31.47;100949.72;5084098;28;20543;-84
2024/03/16 14:26:14;;;;;;;;;;;;;;;25.46;32.25;100944.28;5096777;28;19920;-85
2024/03/16 14:29:07;;;;;;;;;;;;;;;24.91;33.30;100940.75;5075615;28;19916;-82
2024/03/16 14:31:59;;;;;;;;;;;;;;;24.66;33.69;100941.66;5081902;28;19915;-85
2024/03/16 14:34:51;;;;;;;;;;;;;;;24.36;34.09;100938.63;5079515;28;20397;-83
2024/03/16 14:37:46;;;;;;;;;;;;;;;24.01;34.76;100939.50;5085156;28;20373;-84
2024/03/16 14:40:38;;;;;;;;;;;;;;;23.91;35.27;100951.44;5109497;28;19924;-85